滑走路面状態の提供について(国交省資料)
 
History
RJCC 280800Z 35013KT 9999 -SHRA FEW006 BKN012 BKN080 14/13 Q0995 RMK 1ST006 5ST012 7AC080 A2940

TAF RJCC 280508Z 2806/2912 34013KT 9999 FEW010 BKN030   
     TEMPO 2806/2808 3000 TSRA BR FEW005 BKN008 FEW025CB   
     TEMPO 2815/2821 FEW004 BKN007   
     TEMPO 2821/2906 34025G35KT
UD: 04/11 19:34